Pagina principală
METAR-TAF:

METAR-TAF

Aeroporturi :

Natchitoches Regional Airport

Natchitoches, Louisiana, Statele Unite ale Americii

Latitudine: 31-44-09N, longitudine: 093-05-57W, elevație: 37 m

Observații meteo curente

Raportul a fost făcut în urmă cu 23 de minute, la 21:15 UTC
Vânt 3 kt de la Nord-est
Temperatură 37°C
Umiditate 40%
Presiune 1015 hPa
Vizibilitate: 16.1 km
Cer senin

METAR: KIER 222115Z AUTO 04003KT 10SM CLR 37/21 A2998 RMK AO2 T03650211

Ora: 16:38 (21:38 UTC)


TAF: lipsă

Observații și prognoze meteo pentru peste 4.000 de aeroporturi (rapoarte METAR și TAF).

Stațiile disponibile sunt reprezentate pe hartă prin puncte galbene și roșii.

Țineți indicatorul mouse-ului pe punctul dorit pentru a vedea denumirea stației.

Apoi, faceți clic pentru a vedea observațiile și prognozele meteorologice.

Pentru a schimba harta: Pentru mărire, faceți clic pe butoanele verzi cu cruce neagră; pentru micșorare, pe butonul verde cu o liniuță; pentru hărți învecinate, pe săgețile verzi.


METAR-TAF: